sensor_id;sensor_type;location;lat;lon;timestamp;P1;durP1;ratioP1;P2;durP2;ratioP2
63259;SDS011;49390;51.380;0.098;2022-08-21T00:02:02;7.65;;;3.20;;
63259;SDS011;49390;51.380;0.098;2022-08-21T00:04:31;9.75;;;3.13;;
63259;SDS011;49390;51.380;0.098;2022-08-21T00:06:59;13.20;;;3.67;;
63259;SDS011;49390;51.380;0.098;2022-08-21T00:09:27;13.90;;;3.65;;
63259;SDS011;49390;51.380;0.098;2022-08-21T00:11:56;9.45;;;3.47;;
63259;SDS011;49390;51.380;0.098;2022-08-21T00:15:16;8.52;;;3.67;;
63259;SDS011;49390;51.380;0.098;2022-08-21T00:17:47;10.23;;;3.72;;
63259;SDS011;49390;51.380;0.098;2022-08-21T00:20:16;10.75;;;3.97;;
63259;SDS011;49390;51.380;0.098;2022-08-21T00:22:45;14.25;;;4.20;;
63259;SDS011;49390;51.380;0.098;2022-08-21T00:25:14;11.65;;;4.07;;
63259;SDS011;49390;51.380;0.098;2022-08-21T00:27:45;10.60;;;3.60;;
63259;SDS011;49390;51.380;0.098;2022-08-21T00:30:14;12.32;;;4.05;;
63259;SDS011;49390;51.380;0.098;2022-08-21T00:32:51;10.10;;;3.60;;
63259;SDS011;49390;51.380;0.098;2022-08-21T00:37:57;7.10;;;3.35;;
63259;SDS011;49390;51.380;0.098;2022-08-21T00:40:32;8.13;;;3.40;;
63259;SDS011;49390;51.380;0.098;2022-08-21T00:43:03;13.52;;;3.83;;
63259;SDS011;49390;51.380;0.098;2022-08-21T00:45:33;13.95;;;4.13;;
63259;SDS011;49390;51.380;0.098;2022-08-21T00:48:01;11.70;;;4.05;;
63259;SDS011;49390;51.380;0.098;2022-08-21T00:50:31;12.60;;;4.00;;
63259;SDS011;49390;51.380;0.098;2022-08-21T00:53:02;12.10;;;4.05;;
63259;SDS011;49390;51.380;0.098;2022-08-21T00:55:33;11.85;;;4.05;;
63259;SDS011;49390;51.380;0.098;2022-08-21T00:58:06;13.32;;;4.28;;
63259;SDS011;49390;51.380;0.098;2022-08-21T01:00:37;14.82;;;3.92;;
63259;SDS011;49390;51.380;0.098;2022-08-21T01:03:09;14.45;;;3.92;;
63259;SDS011;49390;51.380;0.098;2022-08-21T01:05:40;10.70;;;3.80;;
63259;SDS011;49390;51.380;0.098;2022-08-21T01:08:10;10.35;;;3.67;;
63259;SDS011;49390;51.380;0.098;2022-08-21T01:10:39;16.40;;;3.97;;
63259;SDS011;49390;51.380;0.098;2022-08-21T01:13:09;12.07;;;3.80;;
63259;SDS011;49390;51.380;0.098;2022-08-21T01:15:39;10.45;;;3.72;;
63259;SDS011;49390;51.380;0.098;2022-08-21T01:18:12;11.80;;;4.32;;
63259;SDS011;49390;51.380;0.098;2022-08-21T01:23:34;15.18;;;4.20;;
63259;SDS011;49390;51.380;0.098;2022-08-21T01:26:04;13.15;;;4.10;;
63259;SDS011;49390;51.380;0.098;2022-08-21T01:28:38;19.67;;;4.60;;
63259;SDS011;49390;51.380;0.098;2022-08-21T01:31:17;15.13;;;4.30;;
63259;SDS011;49390;51.380;0.098;2022-08-21T01:33:53;9.65;;;4.00;;
63259;SDS011;49390;51.380;0.098;2022-08-21T01:36:27;10.45;;;3.55;;
63259;SDS011;49390;51.380;0.098;2022-08-21T01:38:56;14.82;;;3.97;;
63259;SDS011;49390;51.380;0.098;2022-08-21T01:41:24;10.90;;;4.18;;
63259;SDS011;49390;51.380;0.098;2022-08-21T01:43:52;12.15;;;5.05;;
63259;SDS011;49390;51.380;0.098;2022-08-21T01:46:20;12.00;;;3.80;;
63259;SDS011;49390;51.380;0.098;2022-08-21T01:48:48;8.98;;;3.78;;
63259;SDS011;49390;51.380;0.098;2022-08-21T01:51:17;10.25;;;4.47;;
63259;SDS011;49390;51.380;0.098;2022-08-21T01:53:45;10.18;;;3.63;;
63259;SDS011;49390;51.380;0.098;2022-08-21T01:56:15;10.80;;;3.80;;
63259;SDS011;49390;51.380;0.098;2022-08-21T01:58:45;17.30;;;4.10;;
63259;SDS011;49390;51.380;0.098;2022-08-21T02:01:16;13.82;;;3.95;;
63259;SDS011;49390;51.380;0.098;2022-08-21T02:03:45;13.98;;;4.43;;
63259;SDS011;49390;51.380;0.098;2022-08-21T02:06:14;10.55;;;3.70;;
63259;SDS011;49390;51.380;0.098;2022-08-21T02:08:45;11.13;;;3.80;;
63259;SDS011;49390;51.380;0.098;2022-08-21T02:11:15;11.77;;;3.60;;
63259;SDS011;49390;51.380;0.098;2022-08-21T02:13:43;12.32;;;3.72;;
63259;SDS011;49390;51.380;0.098;2022-08-21T02:16:12;11.38;;;4.15;;
63259;SDS011;49390;51.380;0.098;2022-08-21T02:18:46;16.52;;;4.28;;
63259;SDS011;49390;51.380;0.098;2022-08-21T02:21:14;8.52;;;4.03;;
63259;SDS011;49390;51.380;0.098;2022-08-21T02:23:43;12.38;;;3.60;;
63259;SDS011;49390;51.380;0.098;2022-08-21T02:26:12;15.05;;;3.95;;
63259;SDS011;49390;51.380;0.098;2022-08-21T02:28:40;15.82;;;3.88;;
63259;SDS011;49390;51.380;0.098;2022-08-21T02:31:09;15.90;;;4.25;;
63259;SDS011;49390;51.380;0.098;2022-08-21T02:33:38;12.10;;;4.10;;
63259;SDS011;49390;51.380;0.098;2022-08-21T02:36:08;19.33;;;4.78;;
63259;SDS011;49390;51.380;0.098;2022-08-21T02:38:38;13.55;;;3.83;;
63259;SDS011;49390;51.380;0.098;2022-08-21T02:41:12;11.45;;;3.75;;
63259;SDS011;49390;51.380;0.098;2022-08-21T02:43:42;13.68;;;3.90;;
63259;SDS011;49390;51.380;0.098;2022-08-21T02:46:12;16.75;;;3.88;;
63259;SDS011;49390;51.380;0.098;2022-08-21T02:48:43;7.72;;;4.10;;
63259;SDS011;49390;51.380;0.098;2022-08-21T02:51:12;11.77;;;3.92;;
63259;SDS011;49390;51.380;0.098;2022-08-21T02:54:12;9.50;;;3.83;;
63259;SDS011;49390;51.380;0.098;2022-08-21T02:56:41;10.00;;;4.18;;
63259;SDS011;49390;51.380;0.098;2022-08-21T02:59:10;8.93;;;3.22;;
63259;SDS011;49390;51.380;0.098;2022-08-21T03:01:38;12.93;;;4.25;;
63259;SDS011;49390;51.380;0.098;2022-08-21T03:04:09;10.25;;;3.60;;
63259;SDS011;49390;51.380;0.098;2022-08-21T03:06:37;12.45;;;3.90;;
63259;SDS011;49390;51.380;0.098;2022-08-21T03:09:06;8.60;;;3.88;;
63259;SDS011;49390;51.380;0.098;2022-08-21T03:11:34;12.30;;;4.28;;
63259;SDS011;49390;51.380;0.098;2022-08-21T03:14:02;11.98;;;4.13;;
63259;SDS011;49390;51.380;0.098;2022-08-21T03:16:32;14.75;;;4.20;;
63259;SDS011;49390;51.380;0.098;2022-08-21T03:19:01;10.73;;;3.47;;
63259;SDS011;49390;51.380;0.098;2022-08-21T03:21:31;12.70;;;4.05;;
63259;SDS011;49390;51.380;0.098;2022-08-21T03:23:59;21.00;;;4.22;;
63259;SDS011;49390;51.380;0.098;2022-08-21T03:26:30;10.65;;;4.57;;
63259;SDS011;49390;51.380;0.098;2022-08-21T03:28:59;14.50;;;3.92;;
63259;SDS011;49390;51.380;0.098;2022-08-21T03:31:26;13.63;;;4.00;;
63259;SDS011;49390;51.380;0.098;2022-08-21T03:33:58;12.68;;;3.95;;
63259;SDS011;49390;51.380;0.098;2022-08-21T03:36:26;11.07;;;3.85;;
63259;SDS011;49390;51.380;0.098;2022-08-21T03:38:55;10.65;;;3.92;;
63259;SDS011;49390;51.380;0.098;2022-08-21T03:41:23;12.30;;;3.65;;
63259;SDS011;49390;51.380;0.098;2022-08-21T03:43:51;10.00;;;3.63;;
63259;SDS011;49390;51.380;0.098;2022-08-21T03:46:19;11.77;;;3.97;;
63259;SDS011;49390;51.380;0.098;2022-08-21T03:48:49;9.88;;;3.40;;
63259;SDS011;49390;51.380;0.098;2022-08-21T03:51:19;14.00;;;3.95;;
63259;SDS011;49390;51.380;0.098;2022-08-21T03:53:47;14.90;;;4.35;;
63259;SDS011;49390;51.380;0.098;2022-08-21T03:56:16;17.48;;;4.20;;
63259;SDS011;49390;51.380;0.098;2022-08-21T03:58:44;14.75;;;4.22;;
63259;SDS011;49390;51.380;0.098;2022-08-21T04:01:12;11.77;;;3.45;;
63259;SDS011;49390;51.380;0.098;2022-08-21T04:03:41;13.30;;;4.40;;
63259;SDS011;49390;51.380;0.098;2022-08-21T04:06:09;16.90;;;4.30;;
63259;SDS011;49390;51.380;0.098;2022-08-21T04:08:37;10.38;;;3.80;;
63259;SDS011;49390;51.380;0.098;2022-08-21T04:11:06;12.35;;;4.00;;
63259;SDS011;49390;51.380;0.098;2022-08-21T04:13:35;9.88;;;4.03;;
63259;SDS011;49390;51.380;0.098;2022-08-21T04:16:11;12.68;;;4.15;;
63259;SDS011;49390;51.380;0.098;2022-08-21T04:18:40;11.40;;;4.10;;
63259;SDS011;49390;51.380;0.098;2022-08-21T04:21:09;13.02;;;4.03;;
63259;SDS011;49390;51.380;0.098;2022-08-21T04:23:42;12.05;;;3.95;;
63259;SDS011;49390;51.380;0.098;2022-08-21T04:26:10;12.98;;;3.75;;
63259;SDS011;49390;51.380;0.098;2022-08-21T04:28:38;10.70;;;4.30;;
63259;SDS011;49390;51.380;0.098;2022-08-21T04:31:07;10.43;;;4.15;;
63259;SDS011;49390;51.380;0.098;2022-08-21T04:33:37;15.23;;;4.30;;
63259;SDS011;49390;51.380;0.098;2022-08-21T04:36:07;8.52;;;3.80;;
63259;SDS011;49390;51.380;0.098;2022-08-21T04:38:40;9.52;;;3.65;;
63259;SDS011;49390;51.380;0.098;2022-08-21T04:41:13;16.00;;;4.57;;
63259;SDS011;49390;51.380;0.098;2022-08-21T04:43:41;12.80;;;4.10;;
63259;SDS011;49390;51.380;0.098;2022-08-21T04:46:10;11.68;;;4.07;;
63259;SDS011;49390;51.380;0.098;2022-08-21T04:48:40;12.30;;;3.90;;
63259;SDS011;49390;51.380;0.098;2022-08-21T04:51:13;11.40;;;3.70;;
63259;SDS011;49390;51.380;0.098;2022-08-21T04:53:51;16.75;;;4.07;;
63259;SDS011;49390;51.380;0.098;2022-08-21T04:56:28;14.35;;;4.53;;
63259;SDS011;49390;51.380;0.098;2022-08-21T04:59:02;7.40;;;3.97;;
63259;SDS011;49390;51.380;0.098;2022-08-21T05:01:34;12.35;;;4.00;;
63259;SDS011;49390;51.380;0.098;2022-08-21T05:04:05;9.48;;;3.58;;
63259;SDS011;49390;51.380;0.098;2022-08-21T05:06:37;13.13;;;4.03;;
63259;SDS011;49390;51.380;0.098;2022-08-21T05:09:09;14.77;;;4.47;;
63259;SDS011;49390;51.380;0.098;2022-08-21T05:11:40;14.35;;;4.22;;
63259;SDS011;49390;51.380;0.098;2022-08-21T05:14:10;12.70;;;4.03;;
63259;SDS011;49390;51.380;0.098;2022-08-21T05:16:39;15.15;;;4.50;;
63259;SDS011;49390;51.380;0.098;2022-08-21T05:19:09;12.80;;;3.90;;
63259;SDS011;49390;51.380;0.098;2022-08-21T05:21:39;12.70;;;4.28;;
63259;SDS011;49390;51.380;0.098;2022-08-21T05:24:09;14.40;;;4.30;;
63259;SDS011;49390;51.380;0.098;2022-08-21T05:26:38;9.63;;;3.42;;
63259;SDS011;49390;51.380;0.098;2022-08-21T05:29:13;11.80;;;3.97;;
63259;SDS011;49390;51.380;0.098;2022-08-21T05:31:43;11.93;;;3.65;;
63259;SDS011;49390;51.380;0.098;2022-08-21T05:34:11;10.07;;;3.90;;
63259;SDS011;49390;51.380;0.098;2022-08-21T05:36:43;15.48;;;4.50;;
63259;SDS011;49390;51.380;0.098;2022-08-21T05:39:11;14.13;;;4.18;;
63259;SDS011;49390;51.380;0.098;2022-08-21T05:41:39;13.88;;;4.28;;
63259;SDS011;49390;51.380;0.098;2022-08-21T05:44:08;11.18;;;3.83;;
63259;SDS011;49390;51.380;0.098;2022-08-21T05:46:37;13.77;;;4.50;;
63259;SDS011;49390;51.380;0.098;2022-08-21T05:49:06;11.68;;;4.15;;
63259;SDS011;49390;51.380;0.098;2022-08-21T05:51:34;14.25;;;3.95;;
63259;SDS011;49390;51.380;0.098;2022-08-21T05:54:02;10.30;;;3.67;;
63259;SDS011;49390;51.380;0.098;2022-08-21T05:56:30;11.60;;;3.85;;
63259;SDS011;49390;51.380;0.098;2022-08-21T05:58:59;13.63;;;4.50;;
63259;SDS011;49390;51.380;0.098;2022-08-21T06:01:27;12.32;;;3.78;;
63259;SDS011;49390;51.380;0.098;2022-08-21T06:03:58;11.97;;;4.43;;
63259;SDS011;49390;51.380;0.098;2022-08-21T06:06:27;11.10;;;3.50;;
63259;SDS011;49390;51.380;0.098;2022-08-21T06:08:56;11.85;;;3.90;;
63259;SDS011;49390;51.380;0.098;2022-08-21T06:11:23;11.77;;;3.90;;
63259;SDS011;49390;51.380;0.098;2022-08-21T06:16:24;11.55;;;3.78;;
63259;SDS011;49390;51.380;0.098;2022-08-21T06:18:54;11.95;;;3.80;;
63259;SDS011;49390;51.380;0.098;2022-08-21T06:21:29;14.95;;;3.55;;
63259;SDS011;49390;51.380;0.098;2022-08-21T06:23:57;8.85;;;3.58;;
63259;SDS011;49390;51.380;0.098;2022-08-21T06:26:26;10.25;;;3.67;;
63259;SDS011;49390;51.380;0.098;2022-08-21T06:28:56;7.63;;;3.50;;
63259;SDS011;49390;51.380;0.098;2022-08-21T06:31:25;13.75;;;3.83;;
63259;SDS011;49390;51.380;0.098;2022-08-21T06:33:55;10.37;;;3.23;;
63259;SDS011;49390;51.380;0.098;2022-08-21T06:36:24;10.10;;;3.63;;
63259;SDS011;49390;51.380;0.098;2022-08-21T06:38:53;10.90;;;3.70;;
63259;SDS011;49390;51.380;0.098;2022-08-21T06:41:24;12.35;;;3.78;;
63259;SDS011;49390;51.380;0.098;2022-08-21T06:43:54;8.87;;;3.60;;
63259;SDS011;49390;51.380;0.098;2022-08-21T06:46:24;12.57;;;4.05;;
63259;SDS011;49390;51.380;0.098;2022-08-21T06:48:53;12.23;;;3.97;;
63259;SDS011;49390;51.380;0.098;2022-08-21T06:51:23;9.65;;;3.30;;
63259;SDS011;49390;51.380;0.098;2022-08-21T06:53:52;14.10;;;4.57;;
63259;SDS011;49390;51.380;0.098;2022-08-21T06:56:21;9.63;;;3.22;;
63259;SDS011;49390;51.380;0.098;2022-08-21T06:58:49;12.20;;;3.60;;
63259;SDS011;49390;51.380;0.098;2022-08-21T07:01:18;9.90;;;3.10;;
63259;SDS011;49390;51.380;0.098;2022-08-21T07:03:53;13.25;;;3.80;;
63259;SDS011;49390;51.380;0.098;2022-08-21T07:06:21;13.68;;;3.22;;
63259;SDS011;49390;51.380;0.098;2022-08-21T07:08:49;11.68;;;3.60;;
63259;SDS011;49390;51.380;0.098;2022-08-21T07:11:20;11.25;;;3.95;;
63259;SDS011;49390;51.380;0.098;2022-08-21T07:13:50;12.02;;;3.33;;
63259;SDS011;49390;51.380;0.098;2022-08-21T07:16:20;14.68;;;3.55;;
63259;SDS011;49390;51.380;0.098;2022-08-21T07:21:19;13.05;;;3.40;;
63259;SDS011;49390;51.380;0.098;2022-08-21T07:23:53;10.23;;;3.30;;
63259;SDS011;49390;51.380;0.098;2022-08-21T07:26:22;9.77;;;3.15;;
63259;SDS011;49390;51.380;0.098;2022-08-21T07:28:51;11.32;;;3.33;;
63259;SDS011;49390;51.380;0.098;2022-08-21T07:31:23;11.18;;;3.42;;
63259;SDS011;49390;51.380;0.098;2022-08-21T07:33:53;8.18;;;3.47;;
63259;SDS011;49390;51.380;0.098;2022-08-21T07:36:21;13.55;;;3.45;;
63259;SDS011;49390;51.380;0.098;2022-08-21T07:38:49;7.45;;;3.05;;
63259;SDS011;49390;51.380;0.098;2022-08-21T07:41:20;11.85;;;3.45;;
63259;SDS011;49390;51.380;0.098;2022-08-21T07:43:56;9.57;;;3.00;;
63259;SDS011;49390;51.380;0.098;2022-08-21T07:46:27;11.52;;;3.40;;
63259;SDS011;49390;51.380;0.098;2022-08-21T07:48:55;7.65;;;3.10;;
63259;SDS011;49390;51.380;0.098;2022-08-21T07:51:25;13.80;;;3.80;;
63259;SDS011;49390;51.380;0.098;2022-08-21T07:53:56;14.63;;;3.20;;
63259;SDS011;49390;51.380;0.098;2022-08-21T07:58:56;11.98;;;3.30;;
63259;SDS011;49390;51.380;0.098;2022-08-21T08:01:25;9.82;;;3.50;;
63259;SDS011;49390;51.380;0.098;2022-08-21T08:03:53;11.35;;;3.50;;
63259;SDS011;49390;51.380;0.098;2022-08-21T08:06:22;9.70;;;3.05;;
63259;SDS011;49390;51.380;0.098;2022-08-21T08:08:50;12.43;;;3.80;;
63259;SDS011;49390;51.380;0.098;2022-08-21T08:11:19;10.70;;;3.08;;
63259;SDS011;49390;51.380;0.098;2022-08-21T08:13:48;10.63;;;3.25;;
63259;SDS011;49390;51.380;0.098;2022-08-21T08:16:18;9.43;;;3.03;;
63259;SDS011;49390;51.380;0.098;2022-08-21T08:18:46;9.18;;;3.30;;
63259;SDS011;49390;51.380;0.098;2022-08-21T08:21:15;12.23;;;3.42;;
63259;SDS011;49390;51.380;0.098;2022-08-21T08:23:43;10.88;;;3.10;;
63259;SDS011;49390;51.380;0.098;2022-08-21T08:26:12;10.15;;;3.13;;
63259;SDS011;49390;51.380;0.098;2022-08-21T08:28:43;10.65;;;3.33;;
63259;SDS011;49390;51.380;0.098;2022-08-21T08:31:13;11.70;;;3.20;;
63259;SDS011;49390;51.380;0.098;2022-08-21T08:33:41;8.45;;;3.38;;
63259;SDS011;49390;51.380;0.098;2022-08-21T08:36:13;11.13;;;3.10;;
63259;SDS011;49390;51.380;0.098;2022-08-21T08:38:44;8.02;;;3.13;;
63259;SDS011;49390;51.380;0.098;2022-08-21T08:43:53;9.60;;;3.30;;
63259;SDS011;49390;51.380;0.098;2022-08-21T08:46:46;12.60;;;3.72;;
63259;SDS011;49390;51.380;0.098;2022-08-21T08:49:20;9.77;;;3.28;;
63259;SDS011;49390;51.380;0.098;2022-08-21T08:58:08;11.55;;;3.00;;
63259;SDS011;49390;51.380;0.098;2022-08-21T09:00:50;8.90;;;3.00;;
63259;SDS011;49390;51.380;0.098;2022-08-21T09:03:20;7.97;;;2.92;;
63259;SDS011;49390;51.380;0.098;2022-08-21T09:11:26;12.77;;;2.92;;
63259;SDS011;49390;51.380;0.098;2022-08-21T09:19:36;7.25;;;2.85;;
63259;SDS011;49390;51.380;0.098;2022-08-21T09:27:49;9.67;;;2.70;;
63259;SDS011;49390;51.380;0.098;2022-08-21T09:30:18;9.45;;;3.28;;
63259;SDS011;49390;51.380;0.098;2022-08-21T09:32:51;10.95;;;2.75;;
63259;SDS011;49390;51.380;0.098;2022-08-21T09:35:20;6.43;;;3.33;;
63259;SDS011;49390;51.380;0.098;2022-08-21T09:37:57;9.40;;;3.10;;
63259;SDS011;49390;51.380;0.098;2022-08-21T09:45:48;10.20;;;2.40;;
63259;SDS011;49390;51.380;0.098;2022-08-21T09:48:37;9.00;;;2.60;;
63259;SDS011;49390;51.380;0.098;2022-08-21T09:51:13;8.15;;;2.40;;
63259;SDS011;49390;51.380;0.098;2022-08-21T09:53:45;9.20;;;3.05;;
63259;SDS011;49390;51.380;0.098;2022-08-21T09:56:24;9.77;;;3.08;;
63259;SDS011;49390;51.380;0.098;2022-08-21T09:59:13;10.18;;;2.70;;
63259;SDS011;49390;51.380;0.098;2022-08-21T10:01:49;7.93;;;2.90;;
63259;SDS011;49390;51.380;0.098;2022-08-21T10:04:23;11.75;;;3.15;;
63259;SDS011;49390;51.380;0.098;2022-08-21T10:07:05;8.80;;;2.80;;
63259;SDS011;49390;51.380;0.098;2022-08-21T10:09:35;7.85;;;2.78;;
63259;SDS011;49390;51.380;0.098;2022-08-21T10:14:53;8.90;;;2.85;;
63259;SDS011;49390;51.380;0.098;2022-08-21T10:20:14;7.95;;;2.92;;
63259;SDS011;49390;51.380;0.098;2022-08-21T10:25:55;6.53;;;2.47;;
63259;SDS011;49390;51.380;0.098;2022-08-21T10:28:47;9.05;;;3.08;;
63259;SDS011;49390;51.380;0.098;2022-08-21T10:31:42;8.63;;;2.70;;
63259;SDS011;49390;51.380;0.098;2022-08-21T10:39:46;7.90;;;2.75;;
63259;SDS011;49390;51.380;0.098;2022-08-21T10:48:13;8.30;;;2.70;;
63259;SDS011;49390;51.380;0.098;2022-08-21T10:50:52;8.18;;;2.90;;
63259;SDS011;49390;51.380;0.098;2022-08-21T10:56:02;8.77;;;2.90;;
63259;SDS011;49390;51.380;0.098;2022-08-21T10:58:40;11.35;;;3.60;;
63259;SDS011;49390;51.380;0.098;2022-08-21T11:01:19;7.22;;;2.60;;
63259;SDS011;49390;51.380;0.098;2022-08-21T11:03:54;7.68;;;2.80;;
63259;SDS011;49390;51.380;0.098;2022-08-21T11:06:41;6.28;;;2.67;;
63259;SDS011;49390;51.380;0.098;2022-08-21T11:09:21;9.63;;;2.78;;
63259;SDS011;49390;51.380;0.098;2022-08-21T11:12:05;6.47;;;2.70;;
63259;SDS011;49390;51.380;0.098;2022-08-21T11:14:55;8.43;;;2.67;;
63259;SDS011;49390;51.380;0.098;2022-08-21T11:17:58;9.02;;;2.63;;
63259;SDS011;49390;51.380;0.098;2022-08-21T11:20:40;9.43;;;2.78;;
63259;SDS011;49390;51.380;0.098;2022-08-21T11:24:02;6.05;;;2.70;;
63259;SDS011;49390;51.380;0.098;2022-08-21T11:26:15;6.68;;;2.60;;
63259;SDS011;49390;51.380;0.098;2022-08-21T11:28:52;10.25;;;2.80;;
63259;SDS011;49390;51.380;0.098;2022-08-21T11:34:19;7.88;;;2.80;;
63259;SDS011;49390;51.380;0.098;2022-08-21T11:39:49;6.53;;;2.53;;
63259;SDS011;49390;51.380;0.098;2022-08-21T11:45:20;7.35;;;2.55;;
63259;SDS011;49390;51.380;0.098;2022-08-21T11:51:22;9.60;;;2.70;;
63259;SDS011;49390;51.380;0.098;2022-08-21T11:59:43;7.25;;;3.10;;
63259;SDS011;49390;51.380;0.098;2022-08-21T12:02:15;10.63;;;3.55;;
63259;SDS011;49390;51.380;0.098;2022-08-21T12:05:06;6.25;;;2.78;;
63259;SDS011;49390;51.380;0.098;2022-08-21T12:07:40;11.25;;;3.58;;
63259;SDS011;49390;51.380;0.098;2022-08-21T12:10:12;8.27;;;2.65;;
63259;SDS011;49390;51.380;0.098;2022-08-21T12:12:43;9.77;;;2.72;;
63259;SDS011;49390;51.380;0.098;2022-08-21T12:17:56;11.80;;;2.97;;
63259;SDS011;49390;51.380;0.098;2022-08-21T12:23:18;6.45;;;2.63;;
63259;SDS011;49390;51.380;0.098;2022-08-21T12:32:23;9.55;;;2.70;;
63259;SDS011;49390;51.380;0.098;2022-08-21T12:37:52;7.38;;;2.97;;
63259;SDS011;49390;51.380;0.098;2022-08-21T12:43:11;6.70;;;2.60;;
63259;SDS011;49390;51.380;0.098;2022-08-21T12:45:44;8.18;;;3.10;;
63259;SDS011;49390;51.380;0.098;2022-08-21T12:51:15;6.88;;;2.78;;
63259;SDS011;49390;51.380;0.098;2022-08-21T12:54:08;8.07;;;2.92;;
63259;SDS011;49390;51.380;0.098;2022-08-21T12:56:37;5.30;;;2.50;;
63259;SDS011;49390;51.380;0.098;2022-08-21T12:59:10;10.57;;;3.10;;
63259;SDS011;49390;51.380;0.098;2022-08-21T13:01:49;9.65;;;3.05;;
63259;SDS011;49390;51.380;0.098;2022-08-21T13:04:21;10.65;;;3.28;;
63259;SDS011;49390;51.380;0.098;2022-08-21T13:07:05;7.47;;;2.97;;
63259;SDS011;49390;51.380;0.098;2022-08-21T13:09:44;9.35;;;2.90;;
63259;SDS011;49390;51.380;0.098;2022-08-21T13:12:17;8.65;;;3.40;;
63259;SDS011;49390;51.380;0.098;2022-08-21T13:14:47;11.75;;;3.38;;
63259;SDS011;49390;51.380;0.098;2022-08-21T13:17:18;6.53;;;3.10;;
63259;SDS011;49390;51.380;0.098;2022-08-21T13:19:57;8.75;;;3.60;;
63259;SDS011;49390;51.380;0.098;2022-08-21T13:22:29;12.05;;;3.40;;
63259;SDS011;49390;51.380;0.098;2022-08-21T13:25:02;9.18;;;3.50;;
63259;SDS011;49390;51.380;0.098;2022-08-21T13:27:36;7.20;;;2.78;;
63259;SDS011;49390;51.380;0.098;2022-08-21T13:32:42;7.25;;;3.20;;
63259;SDS011;49390;51.380;0.098;2022-08-21T13:35:16;10.40;;;3.30;;
63259;SDS011;49390;51.380;0.098;2022-08-21T13:37:49;8.82;;;3.25;;
63259;SDS011;49390;51.380;0.098;2022-08-21T13:40:20;9.00;;;3.30;;
63259;SDS011;49390;51.380;0.098;2022-08-21T13:42:53;7.45;;;3.42;;
63259;SDS011;49390;51.380;0.098;2022-08-21T13:45:47;12.40;;;4.68;;
63259;SDS011;49390;51.380;0.098;2022-08-21T13:48:21;7.88;;;3.22;;
63259;SDS011;49390;51.380;0.098;2022-08-21T13:50:52;7.55;;;3.22;;
63259;SDS011;49390;51.380;0.098;2022-08-21T13:53:44;8.93;;;3.80;;
63259;SDS011;49390;51.380;0.098;2022-08-21T13:56:22;8.57;;;3.67;;
63259;SDS011;49390;51.380;0.098;2022-08-21T13:58:50;7.85;;;3.53;;
63259;SDS011;49390;51.380;0.098;2022-08-21T14:01:25;7.50;;;3.47;;
63259;SDS011;49390;51.380;0.098;2022-08-21T14:04:20;14.93;;;4.35;;
63259;SDS011;49390;51.380;0.098;2022-08-21T14:06:54;7.45;;;3.42;;
63259;SDS011;49390;51.380;0.098;2022-08-21T14:09:33;9.88;;;3.58;;
63259;SDS011;49390;51.380;0.098;2022-08-21T14:15:15;7.97;;;3.40;;
63259;SDS011;49390;51.380;0.098;2022-08-21T14:17:45;8.70;;;3.58;;
63259;SDS011;49390;51.380;0.098;2022-08-21T14:20:35;8.75;;;3.72;;
63259;SDS011;49390;51.380;0.098;2022-08-21T14:23:02;9.70;;;3.75;;
63259;SDS011;49390;51.380;0.098;2022-08-21T14:25:36;8.95;;;3.97;;
63259;SDS011;49390;51.380;0.098;2022-08-21T14:30:54;10.32;;;4.70;;
63259;SDS011;49390;51.380;0.098;2022-08-21T14:33:28;9.25;;;4.05;;
63259;SDS011;49390;51.380;0.098;2022-08-21T14:35:59;9.95;;;3.80;;
63259;SDS011;49390;51.380;0.098;2022-08-21T14:38:29;9.30;;;3.83;;
63259;SDS011;49390;51.380;0.098;2022-08-21T14:41:04;9.73;;;4.20;;
63259;SDS011;49390;51.380;0.098;2022-08-21T14:43:55;7.53;;;3.75;;
63259;SDS011;49390;51.380;0.098;2022-08-21T14:46:35;8.23;;;3.77;;
63259;SDS011;49390;51.380;0.098;2022-08-21T14:49:23;10.65;;;4.13;;
63259;SDS011;49390;51.380;0.098;2022-08-21T14:51:55;8.80;;;3.97;;
63259;SDS011;49390;51.380;0.098;2022-08-21T14:54:26;7.72;;;3.67;;
63259;SDS011;49390;51.380;0.098;2022-08-21T14:56:58;10.43;;;4.28;;
63259;SDS011;49390;51.380;0.098;2022-08-21T14:59:30;9.77;;;4.18;;
63259;SDS011;49390;51.380;0.098;2022-08-21T15:02:00;8.63;;;3.90;;
63259;SDS011;49390;51.380;0.098;2022-08-21T15:04:32;8.25;;;3.58;;
63259;SDS011;49390;51.380;0.098;2022-08-21T15:07:01;9.65;;;3.95;;
63259;SDS011;49390;51.380;0.098;2022-08-21T15:09:30;8.95;;;4.18;;
63259;SDS011;49390;51.380;0.098;2022-08-21T15:11:59;9.82;;;4.18;;
63259;SDS011;49390;51.380;0.098;2022-08-21T15:14:30;9.77;;;3.95;;
63259;SDS011;49390;51.380;0.098;2022-08-21T15:17:02;11.60;;;4.57;;
63259;SDS011;49390;51.380;0.098;2022-08-21T15:19:32;10.52;;;4.22;;
63259;SDS011;49390;51.380;0.098;2022-08-21T15:22:00;10.05;;;4.10;;
63259;SDS011;49390;51.380;0.098;2022-08-21T15:24:29;10.60;;;4.35;;
63259;SDS011;49390;51.380;0.098;2022-08-21T15:26:59;10.90;;;3.90;;
63259;SDS011;49390;51.380;0.098;2022-08-21T15:29:31;6.75;;;3.72;;
63259;SDS011;49390;51.380;0.098;2022-08-21T15:32:15;8.73;;;4.22;;
63259;SDS011;49390;51.380;0.098;2022-08-21T15:34:52;10.98;;;4.30;;
63259;SDS011;49390;51.380;0.098;2022-08-21T15:37:21;11.70;;;4.35;;
63259;SDS011;49390;51.380;0.098;2022-08-21T15:39:50;9.98;;;4.30;;
63259;SDS011;49390;51.380;0.098;2022-08-21T15:42:21;9.68;;;4.20;;
63259;SDS011;49390;51.380;0.098;2022-08-21T15:44:50;9.98;;;4.20;;
63259;SDS011;49390;51.380;0.098;2022-08-21T15:47:30;10.40;;;4.40;;
63259;SDS011;49390;51.380;0.098;2022-08-21T15:50:01;9.10;;;4.50;;
63259;SDS011;49390;51.380;0.098;2022-08-21T15:52:30;9.45;;;4.13;;
63259;SDS011;49390;51.380;0.098;2022-08-21T15:54:58;9.63;;;4.38;;
63259;SDS011;49390;51.380;0.098;2022-08-21T15:57:27;7.88;;;4.15;;
63259;SDS011;49390;51.380;0.098;2022-08-21T15:59:56;9.88;;;4.22;;
63259;SDS011;49390;51.380;0.098;2022-08-21T16:02:38;10.05;;;4.72;;
63259;SDS011;49390;51.380;0.098;2022-08-21T16:05:09;7.47;;;4.10;;
63259;SDS011;49390;51.380;0.098;2022-08-21T16:07:48;10.10;;;4.22;;
63259;SDS011;49390;51.380;0.098;2022-08-21T16:10:21;10.55;;;4.22;;
63259;SDS011;49390;51.380;0.098;2022-08-21T16:12:57;8.90;;;3.95;;
63259;SDS011;49390;51.380;0.098;2022-08-21T16:15:30;9.65;;;4.45;;
63259;SDS011;49390;51.380;0.098;2022-08-21T16:17:59;8.38;;;4.68;;
63259;SDS011;49390;51.380;0.098;2022-08-21T16:20:27;10.98;;;4.43;;
63259;SDS011;49390;51.380;0.098;2022-08-21T16:22:57;9.25;;;4.32;;
63259;SDS011;49390;51.380;0.098;2022-08-21T16:25:26;7.97;;;4.22;;
63259;SDS011;49390;51.380;0.098;2022-08-21T16:27:58;10.25;;;4.43;;
63259;SDS011;49390;51.380;0.098;2022-08-21T16:30:29;7.53;;;4.10;;
63259;SDS011;49390;51.380;0.098;2022-08-21T16:32:58;9.82;;;3.95;;
63259;SDS011;49390;51.380;0.098;2022-08-21T16:35:28;9.98;;;4.18;;
63259;SDS011;49390;51.380;0.098;2022-08-21T16:40:11;9.30;;;3.95;;
63259;SDS011;49390;51.380;0.098;2022-08-21T16:42:41;9.30;;;4.28;;
63259;SDS011;49390;51.380;0.098;2022-08-21T16:47:41;8.02;;;3.90;;
63259;SDS011;49390;51.380;0.098;2022-08-21T16:50:12;8.82;;;4.20;;
63259;SDS011;49390;51.380;0.098;2022-08-21T16:52:43;9.05;;;3.85;;
63259;SDS011;49390;51.380;0.098;2022-08-21T16:55:14;8.63;;;4.45;;
63259;SDS011;49390;51.380;0.098;2022-08-21T16:57:42;9.13;;;4.40;;
63259;SDS011;49390;51.380;0.098;2022-08-21T17:00:11;7.80;;;3.83;;
63259;SDS011;49390;51.380;0.098;2022-08-21T17:02:44;8.30;;;4.00;;
63259;SDS011;49390;51.380;0.098;2022-08-21T17:05:20;8.20;;;4.13;;
63259;SDS011;49390;51.380;0.098;2022-08-21T17:07:51;7.82;;;3.85;;
63259;SDS011;49390;51.380;0.098;2022-08-21T17:10:22;8.93;;;3.40;;